Terminal Aerodrome Forecast
Issued by NWS Jackson, MS

Home | Current Version | Previous Version | Text Only | Print | Product List | Glossary On
Versions: 1 2 3 4 5 6 7 8 9 10 11 12 13
000
FTUS44 KJAN 031754
TAFGLH
TAF
KGLH 031754Z 0318/0418 06010KT 6SM -RA BKN070 OVC090
     FM032000 07012KT 4SM RA BR SCT007 OVC015
     FM040000 07010KT 2SM RA BR OVC007
     FM041400 03005KT 1SM -RA BR OVC004=

USA.gov is the U.S. government's official web portal to all federal, state and local government web resources and services.